createdAt,value
2022-11-19T00:00:55.424Z,8.02
2022-11-19T00:03:22.716Z,7.82
2022-11-19T00:05:49.972Z,7.00
2022-11-19T00:08:18.542Z,7.18
2022-11-19T00:10:46.157Z,7.35
2022-11-19T00:13:14.159Z,6.30
2022-11-19T00:15:41.320Z,6.70
2022-11-19T00:18:09.130Z,6.22
2022-11-19T00:20:36.019Z,6.07
2022-11-19T00:23:02.778Z,7.30
2022-11-19T00:25:30.414Z,5.75
2022-11-19T00:27:57.505Z,4.32
2022-11-19T00:30:46.816Z,6.07
2022-11-19T00:33:11.999Z,5.57
2022-11-19T00:35:38.484Z,6.88
2022-11-19T00:38:05.755Z,5.65
2022-11-19T00:40:32.232Z,6.35
2022-11-19T00:42:58.704Z,6.32
2022-11-19T00:45:25.160Z,7.35
2022-11-19T00:47:51.640Z,6.07
2022-11-19T00:50:19.575Z,9.23
2022-11-19T00:52:45.975Z,7.85
2022-11-19T00:55:12.457Z,6.90
2022-11-19T00:57:38.920Z,6.60
2022-11-19T01:00:06.512Z,6.93
2022-11-19T01:02:33.004Z,6.43
2022-11-19T01:04:59.440Z,7.47
2022-11-19T01:07:27.283Z,5.68
2022-11-19T01:09:53.751Z,5.13
2022-11-19T01:12:20.261Z,6.43
2022-11-19T01:14:46.720Z,8.23
2022-11-19T01:17:13.289Z,6.07
2022-11-19T01:19:39.815Z,7.63
2022-11-19T01:22:06.281Z,9.80
2022-11-19T01:24:34.124Z,9.10
2022-11-19T01:27:00.623Z,9.27
2022-11-19T01:29:27.258Z,10.98
2022-11-19T01:31:53.753Z,9.48
2022-11-19T01:34:20.236Z,9.65
2022-11-19T01:36:46.693Z,9.73
2022-11-19T01:39:13.168Z,8.93
2022-11-19T01:41:41.075Z,7.90
2022-11-19T01:44:27.905Z,10.13
2022-11-19T01:46:54.380Z,7.80
2022-11-19T01:49:21.521Z,8.05
2022-11-19T01:51:51.849Z,9.00
2022-11-19T01:54:23.281Z,7.50
2022-11-19T01:56:51.321Z,6.30
2022-11-19T01:59:19.376Z,8.57
2022-11-19T02:01:46.418Z,8.40
2022-11-19T02:04:15.294Z,10.15
2022-11-19T02:06:43.989Z,11.38
2022-11-19T02:09:10.449Z,12.50
2022-11-19T02:12:02.703Z,8.95
2022-11-19T02:15:06.981Z,10.05
2022-11-19T02:17:47.010Z,10.30
2022-11-19T02:20:32.957Z,10.15
2022-11-19T02:23:24.086Z,10.40
2022-11-19T02:26:12.166Z,10.60
2022-11-19T02:28:46.034Z,10.45
2022-11-19T02:31:19.762Z,12.38
2022-11-19T02:33:54.990Z,13.45
2022-11-19T02:36:25.363Z,13.43
2022-11-19T02:38:57.940Z,10.35
2022-11-19T02:41:31.309Z,11.40
2022-11-19T02:44:04.163Z,8.70
2022-11-19T02:46:32.380Z,8.50
2022-11-19T02:48:59.097Z,7.47
2022-11-19T02:51:25.667Z,5.97
2022-11-19T02:53:52.141Z,7.53
2022-11-19T02:56:48.341Z,6.35
2022-11-19T02:59:18.678Z,7.00
2022-11-19T03:01:48.084Z,7.15
2022-11-19T03:06:42.911Z,6.22
2022-11-19T03:09:09.693Z,6.72
2022-11-19T03:11:36.306Z,5.55
2022-11-19T03:14:10.565Z,7.70
2022-11-19T03:16:40.492Z,7.28
2022-11-19T03:19:17.795Z,4.95
2022-11-19T03:21:51.758Z,5.55
2022-11-19T03:24:22.711Z,6.78
2022-11-19T03:26:52.342Z,6.85
2022-11-19T03:29:21.508Z,5.70
2022-11-19T03:34:22.310Z,4.22
2022-11-19T03:36:52.355Z,5.72
2022-11-19T03:39:20.423Z,7.80
2022-11-19T03:41:50.862Z,5.70
2022-11-19T03:44:24.214Z,5.80
2022-11-19T03:46:54.466Z,5.25
2022-11-19T03:49:27.934Z,6.07
2022-11-19T03:51:58.998Z,4.97
2022-11-19T03:54:25.567Z,4.72
2022-11-19T03:56:52.410Z,4.95
2022-11-19T03:59:18.974Z,4.75
2022-11-19T04:01:49.022Z,5.55
2022-11-19T04:04:15.703Z,5.40
2022-11-19T04:06:44.577Z,4.40
2022-11-19T04:09:11.128Z,4.68
2022-11-19T04:11:37.577Z,4.50
2022-11-19T04:14:04.035Z,4.28
2022-11-19T04:16:30.699Z,3.08
2022-11-19T04:18:57.117Z,6.78
2022-11-19T04:21:23.555Z,5.15
2022-11-19T04:23:51.553Z,7.50
2022-11-19T04:26:18.043Z,3.95
2022-11-19T04:28:44.483Z,7.07
2022-11-19T04:31:15.015Z,8.02
2022-11-19T04:33:44.283Z,7.72
2022-11-19T04:36:10.735Z,5.70
2022-11-19T04:38:37.218Z,7.57
2022-11-19T04:41:05.215Z,7.15
2022-11-19T04:43:31.667Z,7.18
2022-11-19T04:45:58.134Z,6.05
2022-11-19T04:48:24.623Z,8.18
2022-11-19T04:50:53.227Z,8.05
2022-11-19T04:53:19.971Z,6.05
2022-11-19T04:55:46.455Z,4.07
2022-11-19T04:58:14.435Z,2.33
2022-11-19T05:00:40.991Z,1.58
2022-11-19T05:03:07.427Z,2.25
2022-11-19T05:05:33.871Z,1.05
2022-11-19T05:08:00.344Z,3.00
2022-11-19T05:10:26.844Z,1.08
2022-11-19T05:12:53.255Z,1.30
2022-11-19T05:15:21.064Z,1.30
2022-11-19T05:17:47.521Z,2.53
2022-11-19T05:20:14.311Z,2.38
2022-11-19T05:22:40.736Z,2.08
2022-11-19T05:25:08.148Z,2.10
2022-11-19T05:27:35.037Z,2.00
2022-11-19T05:30:01.594Z,2.15
2022-11-19T05:32:29.388Z,2.15
2022-11-19T05:34:55.834Z,3.80
2022-11-19T05:37:22.335Z,2.63
2022-11-19T05:39:48.834Z,1.63
2022-11-19T05:42:15.329Z,3.67
2022-11-19T05:44:41.798Z,2.53
2022-11-19T05:47:08.293Z,3.00
2022-11-19T05:49:36.147Z,3.08
2022-11-19T05:52:02.736Z,2.67
2022-11-19T05:54:29.277Z,3.95
2022-11-19T05:56:55.783Z,3.42
2022-11-19T05:59:22.483Z,3.35
2022-11-19T06:01:49.292Z,4.70
2022-11-19T06:04:15.840Z,3.00
2022-11-19T06:06:43.717Z,3.03
2022-11-19T06:09:10.197Z,2.90
2022-11-19T06:11:36.667Z,5.43
2022-11-19T06:14:03.250Z,3.72
2022-11-19T06:16:29.753Z,5.35
2022-11-19T06:18:56.209Z,5.03
2022-11-19T06:21:22.676Z,4.80
2022-11-19T06:23:50.437Z,5.70
2022-11-19T06:26:22.886Z,5.65
2022-11-19T06:28:49.461Z,4.22
2022-11-19T06:31:16.029Z,5.45
2022-11-19T06:33:42.550Z,4.93
2022-11-19T06:36:09.409Z,4.70
2022-11-19T06:38:36.010Z,7.22
2022-11-19T06:41:03.978Z,6.03
2022-11-19T06:43:30.472Z,7.43
2022-11-19T06:45:56.966Z,9.10
2022-11-19T06:48:23.817Z,6.78
2022-11-19T06:50:50.406Z,7.03
2022-11-19T06:53:16.886Z,9.05
2022-11-19T06:55:43.391Z,9.75
2022-11-19T06:58:11.258Z,9.93
2022-11-19T07:00:37.783Z,9.63
2022-11-19T07:03:04.430Z,10.00
2022-11-19T07:05:30.955Z,8.35
2022-11-19T07:08:02.777Z,7.82
2022-11-19T07:10:29.942Z,10.25
2022-11-19T07:12:56.501Z,10.70
2022-11-19T07:15:24.419Z,12.27
2022-11-19T07:17:50.882Z,9.18
2022-11-19T07:20:17.647Z,12.90
2022-11-19T07:22:44.311Z,12.00
2022-11-19T07:25:11.139Z,9.27
2022-11-19T07:27:37.672Z,10.77
2022-11-19T07:30:05.496Z,9.63
2022-11-19T07:32:33.764Z,11.57
2022-11-19T07:35:00.411Z,10.37
2022-11-19T07:37:26.921Z,10.52
2022-11-19T07:39:53.491Z,12.13
2022-11-19T07:42:20.004Z,10.90
2022-11-19T07:44:54.811Z,12.27
2022-11-19T07:47:21.800Z,15.10
2022-11-19T07:49:49.736Z,13.27
2022-11-19T07:52:16.452Z,13.23
2022-11-19T07:54:42.996Z,14.38
2022-11-19T07:57:09.824Z,14.68
2022-11-19T07:59:36.391Z,13.07
2022-11-19T08:02:03.151Z,18.65
2022-11-19T08:04:29.752Z,14.57
2022-11-19T08:06:57.901Z,13.20
2022-11-19T08:09:24.580Z,12.60
2022-11-19T08:11:51.094Z,14.38
2022-11-19T08:14:17.816Z,12.05
2022-11-19T08:16:44.448Z,12.95
2022-11-19T08:19:13.348Z,10.70
2022-11-19T08:21:42.028Z,14.90
2022-11-19T08:24:10.604Z,15.18
2022-11-19T08:26:37.624Z,15.02
2022-11-19T08:29:04.880Z,14.73
2022-11-19T08:31:31.549Z,12.77
2022-11-19T08:33:58.052Z,11.90
2022-11-19T08:36:24.592Z,11.07
2022-11-19T08:38:51.112Z,11.55
2022-11-19T08:41:19.025Z,13.82
2022-11-19T08:43:45.577Z,12.98
2022-11-19T08:46:12.009Z,16.73
2022-11-19T08:48:38.476Z,12.93
2022-11-19T08:51:06.752Z,12.10
2022-11-19T08:53:33.693Z,15.93
2022-11-19T08:56:00.494Z,14.38
2022-11-19T08:58:28.485Z,14.23
2022-11-19T09:00:55.345Z,15.10
2022-11-19T09:03:21.925Z,18.10
2022-11-19T09:05:48.640Z,13.57
2022-11-19T09:08:15.276Z,13.20
2022-11-19T09:10:44.608Z,15.23
2022-11-19T09:13:11.131Z,16.02
2022-11-19T09:15:39.117Z,16.52
2022-11-19T09:18:05.744Z,12.77
2022-11-19T09:20:32.301Z,13.70
2022-11-19T09:23:01.009Z,15.52
2022-11-19T09:25:27.541Z,12.35
2022-11-19T09:27:54.145Z,13.07
2022-11-19T09:30:20.757Z,14.82
2022-11-19T09:32:48.673Z,14.00
2022-11-19T09:35:15.297Z,12.82
2022-11-19T09:37:41.985Z,14.52
2022-11-19T09:40:15.577Z,12.55
2022-11-19T09:42:50.393Z,16.67
2022-11-19T09:45:22.002Z,12.35
2022-11-19T09:48:15.837Z,12.80
2022-11-19T09:50:53.511Z,12.55
2022-11-19T09:53:22.125Z,12.02
2022-11-19T09:55:52.105Z,11.90
2022-11-19T09:58:22.755Z,12.35
2022-11-19T10:00:49.285Z,10.63
2022-11-19T10:03:20.513Z,10.88
2022-11-19T10:06:05.851Z,9.38
2022-11-19T10:08:49.693Z,9.77
2022-11-19T10:11:29.917Z,13.07
2022-11-19T10:14:03.843Z,10.75
2022-11-19T10:16:47.165Z,9.82
2022-11-19T10:19:23.442Z,12.23
2022-11-19T10:21:59.029Z,12.48
2022-11-19T10:24:34.256Z,11.73
2022-11-19T10:27:08.675Z,14.52
2022-11-19T10:29:38.757Z,13.68
2022-11-19T10:32:22.050Z,11.00
2022-11-19T10:34:53.622Z,14.27
2022-11-19T10:37:23.426Z,14.73
2022-11-19T10:39:56.021Z,11.57
2022-11-19T10:42:26.774Z,13.25
2022-11-19T10:44:59.078Z,10.95
2022-11-19T10:47:33.323Z,11.07
2022-11-19T10:50:04.547Z,13.73
2022-11-19T10:52:39.891Z,13.20
2022-11-19T10:55:18.542Z,11.15
2022-11-19T10:57:46.919Z,14.05
2022-11-19T11:00:14.887Z,10.90
2022-11-19T11:02:45.422Z,14.43
2022-11-19T11:05:15.620Z,13.48
2022-11-19T11:07:50.348Z,14.13
2022-11-19T11:10:38.807Z,12.73
2022-11-19T11:13:13.747Z,12.98
2022-11-19T11:15:45.499Z,15.23
2022-11-19T11:18:13.436Z,11.57
2022-11-19T11:20:46.699Z,13.57
2022-11-19T11:23:17.057Z,16.20
2022-11-19T11:25:54.149Z,11.63
2022-11-19T11:28:22.795Z,10.20
2022-11-19T11:31:10.310Z,11.73
2022-11-19T11:33:40.222Z,11.32
2022-11-19T11:36:10.991Z,12.48
2022-11-19T11:38:43.966Z,12.88
2022-11-19T11:42:03.674Z,13.45
2022-11-19T11:44:02.987Z,10.02
2022-11-19T11:46:41.687Z,12.52
2022-11-19T11:49:20.515Z,10.50
2022-11-19T11:51:58.006Z,11.60
2022-11-19T11:54:24.664Z,11.13
2022-11-19T11:56:51.299Z,10.85
2022-11-19T11:59:25.759Z,12.15
2022-11-19T12:01:57.607Z,10.82
2022-11-19T12:04:24.687Z,10.75
2022-11-19T12:07:07.161Z,12.02
2022-11-19T12:09:42.913Z,11.35
2022-11-19T12:12:16.192Z,9.57
2022-11-19T12:14:53.111Z,10.98
2022-11-19T12:17:35.555Z,8.77
2022-11-19T12:20:18.771Z,12.50
2022-11-19T12:22:57.981Z,12.82
2022-11-19T12:28:22.524Z,12.15
2022-11-19T12:31:00.999Z,10.05
2022-11-19T12:33:49.259Z,9.70
2022-11-19T12:36:26.896Z,11.03
2022-11-19T12:39:02.377Z,14.70
2022-11-19T12:41:43.784Z,10.30
2022-11-19T12:44:26.256Z,10.80
2022-11-19T12:46:57.904Z,9.50
2022-11-19T12:49:44.343Z,9.25
2022-11-19T12:52:29.272Z,11.73
2022-11-19T12:55:03.484Z,12.20
2022-11-19T12:57:43.053Z,14.82
2022-11-19T13:00:14.202Z,8.75
2022-11-19T13:02:50.271Z,8.35
2022-11-19T13:05:19.939Z,9.32
2022-11-19T13:07:52.423Z,8.50
2022-11-19T13:10:24.547Z,10.70
2022-11-19T13:12:54.771Z,12.25
2022-11-19T13:15:26.324Z,11.73
2022-11-19T13:17:55.279Z,13.52
2022-11-19T13:20:27.270Z,12.05
2022-11-19T13:22:57.583Z,11.57
2022-11-19T13:25:29.992Z,10.93
2022-11-19T13:28:00.955Z,9.25
2022-11-19T13:30:29.788Z,12.82
2022-11-19T13:33:05.104Z,9.85
2022-11-19T13:35:37.669Z,13.23
2022-11-19T13:38:14.293Z,15.10
2022-11-19T13:40:47.140Z,12.02
2022-11-19T13:43:30.922Z,11.10
2022-11-19T13:46:06.852Z,11.75
2022-11-19T13:48:40.984Z,14.50
2022-11-19T13:51:18.673Z,12.02
2022-11-19T13:53:46.170Z,11.10
2022-11-19T13:56:17.056Z,11.98
2022-11-19T13:58:47.320Z,9.93
2022-11-19T14:01:43.504Z,10.88
2022-11-19T14:04:47.233Z,15.13
2022-11-19T14:07:32.842Z,14.20
2022-11-19T14:10:08.966Z,11.80
2022-11-19T14:12:52.125Z,10.85
2022-11-19T14:15:37.154Z,14.68
2022-11-19T14:18:10.830Z,13.52
2022-11-19T14:20:39.533Z,12.57
2022-11-19T14:23:08.239Z,12.55
2022-11-19T14:25:45.665Z,13.95
2022-11-19T14:28:42.325Z,10.93
2022-11-19T14:31:08.942Z,12.30
2022-11-19T14:33:57.415Z,18.58
2022-11-19T14:36:35.631Z,11.30
2022-11-19T14:39:06.571Z,11.50
2022-11-19T14:41:34.812Z,18.65
2022-11-19T14:44:05.895Z,15.23
2022-11-19T14:46:32.571Z,17.30
2022-11-19T14:49:18.528Z,15.98
2022-11-19T14:51:52.130Z,22.65
2022-11-19T14:54:31.282Z,12.63
2022-11-19T14:57:08.939Z,19.60
2022-11-19T14:59:38.299Z,14.98
2022-11-19T15:02:15.742Z,13.50
2022-11-19T15:04:51.538Z,19.88
2022-11-19T15:07:33.842Z,10.63
2022-11-19T15:10:35.885Z,16.38
2022-11-19T15:13:17.114Z,11.20
2022-11-19T15:15:47.670Z,15.80
2022-11-19T15:18:49.763Z,12.18
2022-11-19T15:21:39.702Z,14.32
2022-11-19T15:24:27.216Z,16.17
2022-11-19T15:27:06.499Z,11.63
2022-11-19T15:30:12.240Z,13.60
2022-11-19T15:33:10.239Z,17.65
2022-11-19T15:36:12.959Z,16.92
2022-11-19T15:38:43.624Z,15.07
2022-11-19T15:41:22.240Z,12.75
2022-11-19T15:43:51.903Z,13.50
2022-11-19T15:46:29.987Z,11.82
2022-11-19T15:49:06.120Z,10.98
2022-11-19T15:51:45.987Z,12.60
2022-11-19T15:54:12.482Z,15.60
2022-11-19T15:56:48.940Z,14.30
2022-11-19T15:59:19.088Z,14.75
2022-11-19T16:01:56.596Z,12.75
2022-11-19T16:04:31.244Z,16.17
2022-11-19T16:06:58.295Z,9.90
2022-11-19T16:09:25.168Z,13.18
2022-11-19T16:11:52.613Z,12.15
2022-11-19T16:14:20.581Z,12.48
2022-11-19T16:16:51.377Z,11.35
2022-11-19T16:19:18.864Z,13.00
2022-11-19T16:21:50.077Z,13.80
2022-11-19T16:24:19.185Z,20.48
2022-11-19T16:29:15.802Z,18.15
2022-11-19T16:31:42.409Z,29.65
2022-11-19T16:34:17.208Z,22.80
2022-11-19T16:36:48.140Z,14.52
2022-11-19T16:39:15.329Z,13.98
2022-11-19T16:41:42.076Z,12.32
2022-11-19T16:44:12.054Z,13.80
2022-11-19T16:46:38.961Z,14.02
2022-11-19T16:49:29.657Z,12.07
2022-11-19T16:51:58.917Z,14.00
2022-11-19T16:54:48.664Z,12.45
2022-11-19T16:57:18.006Z,11.68
2022-11-19T16:59:48.139Z,14.27
2022-11-19T17:02:17.495Z,18.35
2022-11-19T17:04:49.094Z,14.73
2022-11-19T17:07:23.945Z,13.50
2022-11-19T17:10:08.414Z,15.68
2022-11-19T17:12:36.410Z,15.00
2022-11-19T17:15:34.826Z,13.95
2022-11-19T17:18:13.334Z,14.77
2022-11-19T17:20:51.154Z,12.50
2022-11-19T17:23:19.697Z,13.65
2022-11-19T17:25:48.215Z,12.90
2022-11-19T17:28:20.462Z,12.73
2022-11-19T17:30:49.386Z,12.60
2022-11-19T17:33:18.241Z,15.60
2022-11-19T17:35:46.511Z,15.38
2022-11-19T17:38:14.595Z,14.03
2022-11-19T17:40:45.791Z,13.95
2022-11-19T17:43:12.432Z,14.23
2022-11-19T17:45:38.967Z,17.20
2022-11-19T17:48:16.711Z,13.57
2022-11-19T17:50:43.190Z,12.63
2022-11-19T17:53:09.598Z,14.55
2022-11-19T17:55:36.586Z,15.80
2022-11-19T17:58:03.351Z,14.70
2022-11-19T18:00:29.812Z,16.27
2022-11-19T18:03:00.366Z,12.98
2022-11-19T18:05:34.320Z,13.25
2022-11-19T18:08:00.831Z,15.80
2022-11-19T18:10:27.383Z,14.75
2022-11-19T18:12:53.814Z,15.52
2022-11-19T18:15:21.100Z,13.75
2022-11-19T18:17:47.595Z,15.23
2022-11-19T18:20:14.264Z,11.43
2022-11-19T18:22:42.079Z,16.38
2022-11-19T18:25:13.061Z,14.95
2022-11-19T18:27:39.549Z,15.45
2022-11-19T18:30:07.167Z,17.20
2022-11-19T18:32:33.632Z,11.88
2022-11-19T18:35:01.966Z,15.55
2022-11-19T18:37:28.633Z,14.88
2022-11-19T18:39:56.533Z,16.08
2022-11-19T18:42:29.030Z,14.77
2022-11-19T18:44:55.493Z,13.38
2022-11-19T18:47:22.253Z,15.90
2022-11-19T18:49:48.816Z,15.25
2022-11-19T18:52:15.444Z,14.07
2022-11-19T18:54:42.057Z,11.40
2022-11-19T18:57:12.313Z,15.70
2022-11-19T18:59:38.934Z,14.05
2022-11-19T19:02:05.840Z,17.25
2022-11-19T19:04:32.293Z,15.07
2022-11-19T19:06:59.008Z,17.65
2022-11-19T19:09:25.937Z,14.07
2022-11-19T19:11:52.712Z,14.40
2022-11-19T19:14:20.666Z,16.35
2022-11-19T19:16:47.223Z,18.05
2022-11-19T19:19:14.053Z,15.48
2022-11-19T19:21:40.513Z,13.35
2022-11-19T19:24:07.478Z,13.80
2022-11-19T19:26:34.017Z,15.05
2022-11-19T19:29:00.739Z,15.68
2022-11-19T19:31:28.654Z,14.35
2022-11-19T19:33:55.127Z,13.40
2022-11-19T19:36:21.751Z,15.73
2022-11-19T19:38:48.731Z,13.43
2022-11-19T19:41:18.387Z,15.15
2022-11-19T19:43:45.115Z,13.93
2022-11-19T19:46:13.499Z,11.65
2022-11-19T19:48:41.599Z,14.82
2022-11-19T19:51:08.563Z,17.02
2022-11-19T19:53:35.323Z,15.68
2022-11-19T19:56:02.655Z,14.75
2022-11-19T19:58:29.193Z,14.65
2022-11-19T20:01:02.056Z,16.45
2022-11-19T20:03:28.551Z,15.23
2022-11-19T20:05:56.312Z,15.00
2022-11-19T20:08:22.776Z,12.23
2022-11-19T20:10:49.256Z,14.18
2022-11-19T20:13:15.932Z,14.57
2022-11-19T20:15:42.680Z,14.55
2022-11-19T20:18:09.264Z,15.13
2022-11-19T20:20:36.060Z,14.85
2022-11-19T20:23:03.924Z,14.77
2022-11-19T20:25:30.488Z,15.05
2022-11-19T20:27:56.979Z,12.80
2022-11-19T20:30:23.591Z,15.38
2022-11-19T20:32:50.095Z,15.13
2022-11-19T20:35:16.772Z,12.98
2022-11-19T20:37:43.383Z,16.52
2022-11-19T20:40:11.771Z,15.73
2022-11-19T20:42:38.335Z,15.55
2022-11-19T20:45:05.581Z,13.75
2022-11-19T20:47:32.109Z,15.55
2022-11-19T20:49:58.553Z,12.43
2022-11-19T20:52:25.134Z,16.08
2022-11-19T20:54:51.998Z,13.88
2022-11-19T20:57:19.976Z,16.55
2022-11-19T20:59:46.747Z,14.98
2022-11-19T21:02:13.373Z,14.25
2022-11-19T21:04:39.853Z,14.40
2022-11-19T21:07:06.525Z,13.57
2022-11-19T21:09:33.097Z,13.43
2022-11-19T21:11:59.635Z,12.80
2022-11-19T21:14:27.393Z,13.90
2022-11-19T21:16:53.930Z,13.88
2022-11-19T21:19:20.751Z,11.70
2022-11-19T21:21:47.657Z,17.83
2022-11-19T21:24:14.532Z,12.52
2022-11-19T21:26:41.350Z,15.07
2022-11-19T21:29:07.849Z,13.02
2022-11-19T21:31:36.694Z,14.15
2022-11-19T21:34:04.354Z,18.80
2022-11-19T21:36:30.858Z,15.93
2022-11-19T21:38:57.455Z,13.02
2022-11-19T21:41:23.945Z,15.85
2022-11-19T21:43:50.469Z,16.33
2022-11-19T21:46:16.956Z,12.52
2022-11-19T21:48:44.815Z,16.75
2022-11-19T21:51:11.626Z,14.38
2022-11-19T21:53:38.174Z,11.75
2022-11-19T21:56:05.315Z,16.20
2022-11-19T21:58:31.746Z,13.50
2022-11-19T22:00:59.470Z,14.38
2022-11-19T22:03:26.179Z,11.85
2022-11-19T22:05:59.948Z,17.00
2022-11-19T22:08:28.589Z,13.63
2022-11-19T22:10:55.095Z,17.77
2022-11-19T22:13:21.579Z,15.80
2022-11-19T22:15:48.103Z,16.17
2022-11-19T22:18:14.542Z,15.13
2022-11-19T22:20:41.084Z,19.38
2022-11-19T22:23:09.311Z,15.80
2022-11-19T22:25:35.835Z,16.60
2022-11-19T22:28:02.451Z,16.77
2022-11-19T22:30:28.919Z,14.27
2022-11-19T22:32:55.435Z,20.27
2022-11-19T22:35:21.947Z,19.10
2022-11-19T22:37:48.439Z,21.00
2022-11-19T22:40:16.584Z,16.02
2022-11-19T22:42:43.075Z,19.45
2022-11-19T22:45:09.867Z,15.20
2022-11-19T22:47:36.263Z,13.68
2022-11-19T22:50:02.938Z,14.95
2022-11-19T22:52:29.397Z,15.52
2022-11-19T22:54:55.891Z,15.02
2022-11-19T22:57:23.753Z,17.35
2022-11-19T22:59:50.347Z,16.02
2022-11-19T23:02:16.977Z,15.27
2022-11-19T23:04:43.814Z,15.27
2022-11-19T23:07:10.331Z,13.50
2022-11-19T23:09:36.839Z,21.35
2022-11-19T23:12:03.568Z,14.07
2022-11-19T23:14:31.773Z,16.45
2022-11-19T23:16:58.360Z,14.77
2022-11-19T23:19:24.879Z,16.77
2022-11-19T23:21:51.383Z,17.15
2022-11-19T23:24:18.165Z,17.63
2022-11-19T23:26:44.664Z,13.25
2022-11-19T23:29:11.131Z,16.52
2022-11-19T23:31:39.691Z,17.67
2022-11-19T23:34:07.444Z,14.48
2022-11-19T23:36:35.904Z,18.70
2022-11-19T23:39:02.864Z,19.80
2022-11-19T23:41:32.096Z,14.25
2022-11-19T23:43:58.776Z,17.65
2022-11-19T23:49:12.819Z,19.75
2022-11-19T23:51:39.810Z,17.20
2022-11-19T23:54:06.284Z,17.45
2022-11-19T23:56:34.771Z,13.50
2022-11-19T23:59:02.322Z,15.70
